createdAt,value
2022-07-26T00:01:25.883Z,2.10
2022-07-26T00:06:35.423Z,2.10
2022-07-26T00:11:38.733Z,2.10
2022-07-26T00:16:42.269Z,2.40
2022-07-26T00:21:45.661Z,1.90
2022-07-26T00:26:48.972Z,1.80
2022-07-26T00:31:52.369Z,2.00
2022-07-26T00:36:55.798Z,2.20
2022-07-26T00:41:59.109Z,2.10
2022-07-26T00:47:02.523Z,2.40
2022-07-26T00:52:10.542Z,2.20
2022-07-26T00:57:15.395Z,1.90
2022-07-26T01:02:19.279Z,2.10
2022-07-26T01:07:23.551Z,2.00
2022-07-26T01:12:26.860Z,2.50
2022-07-26T01:17:30.273Z,2.10
2022-07-26T01:22:33.685Z,2.40
2022-07-26T01:27:39.801Z,2.70
2022-07-26T01:32:43.177Z,2.10
2022-07-26T01:37:47.102Z,2.60
2022-07-26T01:42:50.514Z,2.20
2022-07-26T01:47:54.131Z,3.00
2022-07-26T01:52:57.443Z,2.60
2022-07-26T01:58:00.856Z,2.10
2022-07-26T02:03:04.328Z,2.40
2022-07-26T02:08:07.989Z,1.90
2022-07-26T02:13:16.113Z,2.10
2022-07-26T02:18:19.631Z,2.10
2022-07-26T02:23:24.891Z,2.60
2022-07-26T02:28:28.706Z,2.30
2022-07-26T02:38:35.431Z,2.00
2022-07-26T02:43:38.845Z,1.70
2022-07-26T02:48:45.234Z,2.40
2022-07-26T02:53:48.642Z,1.80
2022-07-26T02:58:52.158Z,2.30
2022-07-26T03:03:55.878Z,2.20
2022-07-26T03:19:06.939Z,2.40
2022-07-26T03:24:10.561Z,2.20
2022-07-26T03:29:14.377Z,2.30
2022-07-26T03:34:18.100Z,2.20
2022-07-26T03:39:21.511Z,2.10
2022-07-26T03:44:26.256Z,2.50
2022-07-26T03:49:29.719Z,2.10
2022-07-26T03:54:33.184Z,2.10
2022-07-26T03:59:36.803Z,2.80
2022-07-26T04:09:43.428Z,2.70
2022-07-26T04:14:46.738Z,2.30
2022-07-26T04:19:50.250Z,2.70
2022-07-26T04:24:53.670Z,2.50
2022-07-26T04:29:57.282Z,4.00
2022-07-26T04:35:00.543Z,2.60
2022-07-26T04:40:04.335Z,2.20
2022-07-26T04:45:08.982Z,2.40
2022-07-26T04:50:13.597Z,2.00
2022-07-26T04:55:19.425Z,2.40
2022-07-26T05:00:26.818Z,2.20
2022-07-26T05:05:32.104Z,3.90
2022-07-26T05:10:37.695Z,2.70
2022-07-26T05:15:42.925Z,4.50
2022-07-26T05:20:48.207Z,5.10
2022-07-26T05:25:51.519Z,7.50
2022-07-26T05:30:55.067Z,8.90
2022-07-26T05:35:58.652Z,6.00
2022-07-26T05:41:02.065Z,3.80
2022-07-26T05:46:09.455Z,3.20
2022-07-26T05:51:13.300Z,2.30
2022-07-26T05:56:16.604Z,1.80
2022-07-26T06:01:20.022Z,1.80
2022-07-26T06:06:23.432Z,1.90
2022-07-26T06:11:26.853Z,2.20
2022-07-26T06:16:30.258Z,2.00
2022-07-26T06:21:33.671Z,1.90
2022-07-26T06:26:37.192Z,2.00
2022-07-26T06:31:41.051Z,2.50
2022-07-26T06:36:44.833Z,3.60
2022-07-26T06:41:48.656Z,2.80
2022-07-26T06:46:52.069Z,2.70
2022-07-26T06:51:58.248Z,2.10
2022-07-26T06:57:01.511Z,2.30
2022-07-26T07:02:06.153Z,2.20
2022-07-26T07:07:09.574Z,2.30
2022-07-26T07:12:13.089Z,2.50
2022-07-26T07:17:20.531Z,2.10
2022-07-26T07:22:24.255Z,1.90
2022-07-26T07:27:28.489Z,2.50
2022-07-26T07:32:32.977Z,1.80
2022-07-26T07:37:53.809Z,2.40
2022-07-26T07:42:58.802Z,2.60
2022-07-26T07:48:02.279Z,2.40
2022-07-26T07:53:05.730Z,2.80
2022-07-26T07:58:09.349Z,2.50
2022-07-26T08:03:13.170Z,2.40
2022-07-26T08:08:22.028Z,2.60
2022-07-26T08:13:26.193Z,2.70
2022-07-26T08:18:30.475Z,3.10
2022-07-26T08:23:34.195Z,3.80
2022-07-26T08:28:47.245Z,3.00
2022-07-26T08:33:51.670Z,2.90
2022-07-26T08:44:08.476Z,2.90
2022-07-26T08:49:17.433Z,2.90
2022-07-26T08:54:23.755Z,2.80
2022-07-26T08:59:27.225Z,3.00
2022-07-26T09:04:35.391Z,2.60
2022-07-26T09:09:57.135Z,3.00
2022-07-26T09:15:02.471Z,2.80
2022-07-26T09:20:14.886Z,2.40
2022-07-26T09:25:22.945Z,2.90
2022-07-26T09:30:28.048Z,2.90
2022-07-26T09:35:52.304Z,2.40
2022-07-26T09:40:58.656Z,3.00
2022-07-26T09:46:07.602Z,2.50
2022-07-26T09:51:11.449Z,2.80
2022-07-26T09:56:15.062Z,2.50
2022-07-26T10:01:18.402Z,3.60
2022-07-26T10:06:26.092Z,3.30
2022-07-26T10:11:43.016Z,3.10
2022-07-26T10:16:46.330Z,2.60
2022-07-26T10:21:51.074Z,3.30
2022-07-26T10:26:54.383Z,2.40
2022-07-26T10:37:07.315Z,2.10
2022-07-26T10:42:11.743Z,2.40
2022-07-26T10:47:18.844Z,2.20
2022-07-26T10:52:28.158Z,2.10
2022-07-26T10:57:42.964Z,2.00
2022-07-26T11:02:54.887Z,2.70
2022-07-26T11:08:05.304Z,2.20
2022-07-26T11:13:16.304Z,2.30
2022-07-26T11:18:25.361Z,2.50
2022-07-26T11:23:41.058Z,2.20
2022-07-26T11:28:59.467Z,2.20
2022-07-26T11:34:04.875Z,2.00
2022-07-26T11:39:14.432Z,1.70
2022-07-26T11:44:20.816Z,1.70
2022-07-26T11:54:55.091Z,2.20
2022-07-26T12:00:00.048Z,2.10
2022-07-26T12:05:22.208Z,1.60
2022-07-26T12:10:26.320Z,2.10
2022-07-26T12:15:52.404Z,1.70
2022-07-26T12:21:04.648Z,2.30
2022-07-26T12:26:28.887Z,1.70
2022-07-26T12:31:34.429Z,1.60
2022-07-26T12:36:38.680Z,2.50
2022-07-26T12:41:45.574Z,1.60
2022-07-26T12:46:49.794Z,1.70
2022-07-26T12:51:53.223Z,1.80
2022-07-26T13:02:00.136Z,2.00
2022-07-26T13:07:05.855Z,2.00
2022-07-26T13:12:10.522Z,1.60
2022-07-26T13:17:13.964Z,2.20
2022-07-26T13:22:17.385Z,1.60
2022-07-26T13:27:20.801Z,2.20
2022-07-26T13:32:24.111Z,2.20
2022-07-26T13:42:30.836Z,2.00
2022-07-26T13:47:34.254Z,2.00
2022-07-26T13:52:37.668Z,1.80
2022-07-26T13:57:49.569Z,2.40
2022-07-26T14:03:01.026Z,3.10
2022-07-26T14:08:04.754Z,3.10
2022-07-26T14:13:09.131Z,5.00
2022-07-26T14:18:12.442Z,4.90
2022-07-26T14:23:15.755Z,2.60
2022-07-26T14:28:19.167Z,3.30
2022-07-26T14:33:22.482Z,3.50
2022-07-26T14:38:29.954Z,5.30
2022-07-26T14:43:33.707Z,5.90
2022-07-26T14:48:53.505Z,9.10
2022-07-26T14:53:57.636Z,3.90
2022-07-26T14:59:00.919Z,7.10
2022-07-26T15:04:05.376Z,8.50
2022-07-26T15:09:08.698Z,7.80
2022-07-26T15:14:12.313Z,3.90
2022-07-26T15:19:16.135Z,6.80
2022-07-26T15:24:19.447Z,6.40
2022-07-26T15:29:26.444Z,6.60
2022-07-26T15:34:29.756Z,2.90
2022-07-26T15:39:33.168Z,2.10
2022-07-26T15:44:41.483Z,2.80
2022-07-26T15:49:44.910Z,2.30
2022-07-26T15:54:48.322Z,2.10
2022-07-26T15:59:51.686Z,2.00
2022-07-26T16:04:55.046Z,1.70
2022-07-26T16:09:58.561Z,2.60
2022-07-26T16:15:01.874Z,2.10
2022-07-26T16:20:05.968Z,2.30
2022-07-26T16:25:10.395Z,2.20
2022-07-26T16:30:15.241Z,2.00
2022-07-26T16:35:18.508Z,2.10
2022-07-26T16:40:22.087Z,2.00
2022-07-26T16:45:25.527Z,2.20
2022-07-26T16:50:28.941Z,2.30
2022-07-26T16:55:32.148Z,1.90
2022-07-26T17:00:35.523Z,2.20
2022-07-26T17:05:38.976Z,2.10
2022-07-26T17:10:42.592Z,2.10
2022-07-26T17:15:46.179Z,2.10
2022-07-26T17:20:49.729Z,2.50
2022-07-26T17:25:53.242Z,2.50
2022-07-26T17:30:56.655Z,2.10
2022-07-26T17:36:03.291Z,2.50
2022-07-26T17:41:07.783Z,2.70
2022-07-26T17:46:11.158Z,2.40
2022-07-26T17:51:16.249Z,2.30
2022-07-26T17:56:19.456Z,2.20
2022-07-26T18:01:22.904Z,2.40
2022-07-26T18:06:26.394Z,2.90
2022-07-26T18:11:29.902Z,2.60
2022-07-26T18:16:34.039Z,3.00
2022-07-26T18:21:37.443Z,2.60
2022-07-26T18:26:42.294Z,2.60
2022-07-26T18:31:47.295Z,2.80
2022-07-26T18:36:50.551Z,2.20
2022-07-26T18:46:58.425Z,3.50
2022-07-26T18:52:08.387Z,3.00
2022-07-26T18:57:12.501Z,2.90
2022-07-26T19:07:19.536Z,2.50
2022-07-26T19:12:22.841Z,2.60
2022-07-26T19:17:27.744Z,2.70
2022-07-26T19:22:33.416Z,2.40
2022-07-26T19:27:37.895Z,2.70
2022-07-26T19:32:42.433Z,2.40
2022-07-26T19:37:46.564Z,2.60
2022-07-26T19:42:50.493Z,2.40
2022-07-26T19:47:53.800Z,2.40
2022-07-26T19:52:57.110Z,2.70
2022-07-26T19:58:00.627Z,3.50
2022-07-26T20:03:04.804Z,2.70
2022-07-26T20:08:08.173Z,2.10
2022-07-26T20:13:11.583Z,1.30
2022-07-26T20:18:15.206Z,1.50
2022-07-26T20:23:18.716Z,1.20
2022-07-26T20:28:22.233Z,1.20
2022-07-26T20:33:27.077Z,1.60
2022-07-26T20:38:30.544Z,1.70
2022-07-26T20:43:34.415Z,1.60
2022-07-26T20:48:37.953Z,1.50
2022-07-26T20:53:42.064Z,1.10
2022-07-26T20:58:46.072Z,1.50
2022-07-26T21:03:49.916Z,1.30
2022-07-26T21:08:53.531Z,2.00
2022-07-26T21:13:57.159Z,1.50
2022-07-26T21:19:01.855Z,1.20
2022-07-26T21:24:06.680Z,1.60
2022-07-26T21:29:10.247Z,1.00
2022-07-26T21:34:13.948Z,1.60
2022-07-26T21:39:17.595Z,1.20
2022-07-26T21:44:20.906Z,0.90
2022-07-26T21:49:24.319Z,1.50
2022-07-26T21:54:27.837Z,1.20
2022-07-26T21:59:31.144Z,1.70
2022-07-26T22:04:34.504Z,1.10
2022-07-26T22:09:37.869Z,1.20
2022-07-26T22:14:41.180Z,1.10
2022-07-26T22:19:44.595Z,1.20
2022-07-26T22:24:47.902Z,1.20
2022-07-26T22:34:55.040Z,1.00
2022-07-26T22:39:58.348Z,1.80
2022-07-26T22:45:01.761Z,0.90
2022-07-26T22:50:06.709Z,0.70
2022-07-26T22:55:12.600Z,1.00
2022-07-26T23:00:18.384Z,1.10
2022-07-26T23:05:21.766Z,1.30
2022-07-26T23:10:31.114Z,1.10
2022-07-26T23:15:34.528Z,0.50
2022-07-26T23:20:37.840Z,1.50
2022-07-26T23:25:41.152Z,1.30
2022-07-26T23:30:44.464Z,2.20
2022-07-26T23:35:47.985Z,1.10
2022-07-26T23:40:51.285Z,1.30
2022-07-26T23:45:54.597Z,1.30
2022-07-26T23:50:57.930Z,1.20
2022-07-26T23:56:01.221Z,1.20
